createdAt,value
2019-02-07T00:00:50.338Z,17.87
2019-02-07T00:01:50.351Z,17.92
2019-02-07T00:02:50.326Z,17.87
2019-02-07T00:03:50.302Z,17.87
2019-02-07T00:04:50.291Z,17.87
2019-02-07T00:05:50.290Z,17.94
2019-02-07T00:06:50.402Z,17.83
2019-02-07T00:07:50.381Z,17.90
2019-02-07T00:08:50.253Z,17.86
2019-02-07T00:09:50.266Z,17.90
2019-02-07T00:10:50.250Z,17.95
2019-02-07T00:11:50.246Z,17.95
2019-02-07T00:12:50.218Z,17.89
2019-02-07T00:13:50.324Z,17.98
2019-02-07T00:14:50.188Z,17.89
2019-02-07T00:15:50.193Z,17.94
2019-02-07T00:16:50.206Z,17.97
2019-02-07T00:17:50.196Z,17.95
2019-02-07T00:18:50.186Z,17.97
2019-02-07T00:19:50.128Z,17.90
2019-02-07T00:20:50.158Z,17.94
2019-02-07T00:21:50.213Z,17.89
2019-02-07T00:22:50.154Z,17.90
2019-02-07T00:23:50.128Z,17.92
2019-02-07T00:24:50.142Z,17.97
2019-02-07T00:25:50.102Z,17.94
2019-02-07T00:26:50.153Z,17.94
2019-02-07T00:27:50.091Z,17.97
2019-02-07T00:28:50.037Z,17.90
2019-02-07T00:29:50.056Z,17.86
2019-02-07T00:30:50.040Z,17.92
2019-02-07T00:31:50.032Z,17.95
2019-02-07T00:32:50.029Z,17.90
2019-02-07T00:33:49.994Z,17.92
2019-02-07T00:34:49.973Z,17.89
2019-02-07T00:35:49.952Z,17.89
2019-02-07T00:36:50.012Z,17.94
2019-02-07T00:37:49.940Z,17.89
2019-02-07T00:38:49.942Z,17.92
2019-02-07T00:39:49.922Z,17.87
2019-02-07T00:40:49.902Z,17.87
2019-02-07T00:41:49.950Z,17.92
2019-02-07T00:42:49.923Z,17.86
2019-02-07T00:43:49.867Z,17.82
2019-02-07T00:44:50.660Z,17.85
2019-02-07T00:45:49.850Z,17.89
2019-02-07T00:46:49.899Z,17.83
2019-02-07T00:47:49.838Z,17.86
2019-02-07T00:48:49.819Z,17.86
2019-02-07T00:49:49.809Z,17.89
2019-02-07T00:50:49.787Z,17.80
2019-02-07T00:51:49.782Z,17.86
2019-02-07T00:52:49.775Z,17.86
2019-02-07T00:53:49.758Z,17.87
2019-02-07T00:54:49.751Z,17.92
2019-02-07T00:55:49.734Z,17.83
2019-02-07T00:56:49.733Z,17.86
2019-02-07T00:57:49.761Z,17.80
2019-02-07T00:58:49.713Z,17.82
2019-02-07T00:59:49.686Z,17.80
2019-02-07T01:00:49.682Z,17.80
2019-02-07T01:01:49.671Z,17.86
2019-02-07T01:02:49.715Z,17.89
2019-02-07T01:03:49.644Z,17.85
2019-02-07T01:04:49.696Z,17.86
2019-02-07T01:05:49.630Z,17.89
2019-02-07T01:06:49.654Z,17.85
2019-02-07T01:07:49.634Z,17.85
2019-02-07T01:08:49.623Z,17.83
2019-02-07T01:09:49.583Z,17.90
2019-02-07T01:10:49.570Z,17.85
2019-02-07T01:11:49.571Z,17.82
2019-02-07T01:12:49.586Z,17.86
2019-02-07T01:13:49.543Z,17.86
2019-02-07T01:14:49.522Z,17.85
2019-02-07T01:15:49.520Z,17.83
2019-02-07T01:16:49.548Z,17.86
2019-02-07T01:17:49.588Z,17.85
2019-02-07T01:18:49.522Z,17.82
2019-02-07T01:19:49.516Z,17.82
2019-02-07T01:20:49.518Z,17.82
2019-02-07T01:21:49.518Z,17.78
2019-02-07T01:22:49.544Z,17.79
2019-02-07T01:23:49.495Z,17.83
2019-02-07T01:24:49.450Z,17.87
2019-02-07T01:25:49.442Z,17.86
2019-02-07T01:26:49.428Z,17.86
2019-02-07T01:27:49.485Z,17.79
2019-02-07T01:28:49.383Z,17.85
2019-02-07T01:29:49.371Z,17.86
2019-02-07T01:30:49.364Z,17.90
2019-02-07T01:31:49.356Z,17.83
2019-02-07T01:32:49.386Z,17.86
2019-02-07T01:33:49.324Z,17.83
2019-02-07T01:34:49.416Z,17.85
2019-02-07T01:35:49.298Z,17.85
2019-02-07T01:36:49.288Z,17.85
2019-02-07T01:37:49.330Z,17.82
2019-02-07T01:38:49.315Z,17.89
2019-02-07T01:39:49.264Z,17.83
2019-02-07T01:40:49.267Z,17.76
2019-02-07T01:41:49.236Z,17.87
2019-02-07T01:42:49.251Z,17.74
2019-02-07T01:43:49.222Z,17.78
2019-02-07T01:44:49.205Z,17.76
2019-02-07T01:45:49.185Z,17.85
2019-02-07T01:46:49.183Z,17.76
2019-02-07T01:47:49.207Z,17.72
2019-02-07T01:48:49.159Z,17.78
2019-02-07T01:49:49.168Z,17.82
2019-02-07T01:50:49.142Z,17.82
2019-02-07T01:51:49.120Z,17.76
2019-02-07T01:52:49.142Z,17.80
2019-02-07T01:53:49.110Z,17.82
2019-02-07T01:54:49.097Z,17.82
2019-02-07T01:55:49.086Z,17.76
2019-02-07T01:56:49.076Z,17.74
2019-02-07T01:57:49.091Z,17.72
2019-02-07T01:58:49.091Z,17.82
2019-02-07T01:59:49.034Z,17.80
2019-02-07T02:00:49.041Z,17.80
2019-02-07T02:01:49.009Z,17.79
2019-02-07T02:02:49.030Z,17.76
2019-02-07T02:03:49.006Z,17.76
2019-02-07T02:04:49.005Z,17.74
2019-02-07T02:05:48.972Z,17.82
2019-02-07T02:06:48.970Z,17.68
2019-02-07T02:07:48.975Z,17.74
2019-02-07T02:08:48.948Z,17.72
2019-02-07T02:09:48.927Z,17.70
2019-02-07T02:10:48.913Z,17.80
2019-02-07T02:11:49.254Z,17.78
2019-02-07T02:12:48.976Z,17.71
2019-02-07T02:13:48.892Z,17.71
2019-02-07T02:14:48.872Z,17.71
2019-02-07T02:15:48.871Z,17.68
2019-02-07T02:16:48.851Z,17.68
2019-02-07T02:17:48.872Z,17.76
2019-02-07T02:18:48.971Z,17.78
2019-02-07T02:19:48.871Z,17.76
2019-02-07T02:20:48.849Z,17.67
2019-02-07T02:21:48.836Z,17.72
2019-02-07T02:22:48.819Z,17.79
2019-02-07T02:23:48.816Z,17.72
2019-02-07T02:24:48.765Z,17.72
2019-02-07T02:25:48.786Z,17.71
2019-02-07T02:26:48.769Z,17.72
2019-02-07T02:27:48.734Z,17.82
2019-02-07T02:28:48.720Z,17.72
2019-02-07T02:29:48.725Z,17.76
2019-02-07T02:30:48.720Z,17.80
2019-02-07T02:31:48.703Z,17.80
2019-02-07T02:32:48.697Z,17.80
2019-02-07T02:33:48.694Z,17.80
2019-02-07T02:34:48.657Z,17.72
2019-02-07T02:35:48.640Z,17.82
2019-02-07T02:36:48.635Z,17.78
2019-02-07T02:37:48.648Z,17.78
2019-02-07T02:38:48.647Z,17.78
2019-02-07T02:39:48.612Z,17.82
2019-02-07T02:40:48.590Z,17.80
2019-02-07T02:41:48.580Z,17.71
2019-02-07T02:42:48.570Z,17.72
2019-02-07T02:43:48.561Z,17.76
2019-02-07T02:44:48.550Z,17.72
2019-02-07T02:45:48.538Z,17.79
2019-02-07T02:46:48.534Z,17.70
2019-02-07T02:47:48.508Z,17.82
2019-02-07T02:48:48.522Z,17.80
2019-02-07T02:49:48.531Z,17.82
2019-02-07T02:50:48.652Z,17.79
2019-02-07T02:51:48.481Z,17.76
2019-02-07T02:52:48.460Z,17.83
2019-02-07T02:53:48.528Z,17.80
2019-02-07T02:54:48.529Z,17.71
2019-02-07T02:55:48.488Z,17.83
2019-02-07T02:56:48.409Z,17.70
2019-02-07T02:57:48.496Z,17.60
2019-02-07T02:58:48.423Z,17.82
2019-02-07T02:59:48.432Z,17.78
2019-02-07T03:00:48.411Z,17.71
2019-02-07T03:01:48.422Z,17.74
2019-02-07T03:02:48.370Z,17.76
2019-02-07T03:03:48.368Z,17.74
2019-02-07T03:04:48.323Z,17.74
2019-02-07T03:05:48.347Z,17.71
2019-02-07T03:06:48.378Z,17.71
2019-02-07T03:07:48.300Z,17.72
2019-02-07T03:08:48.306Z,17.72
2019-02-07T03:09:48.292Z,17.76
2019-02-07T03:10:48.392Z,17.79
2019-02-07T03:11:48.340Z,17.79
2019-02-07T03:12:48.280Z,17.76
2019-02-07T03:13:48.268Z,17.76
2019-02-07T03:14:48.221Z,17.85
2019-02-07T03:15:49.969Z,17.74
2019-02-07T03:16:48.303Z,17.74
2019-02-07T03:17:48.218Z,17.78
2019-02-07T03:18:48.285Z,17.86
2019-02-07T03:19:48.202Z,17.76
2019-02-07T03:20:48.219Z,17.70
2019-02-07T03:21:48.172Z,17.71
2019-02-07T03:22:48.163Z,17.87
2019-02-07T03:23:48.208Z,17.85
2019-02-07T03:24:48.146Z,17.78
2019-02-07T03:25:48.141Z,17.78
2019-02-07T03:26:48.123Z,17.76
2019-02-07T03:27:48.096Z,17.86
2019-02-07T03:28:48.102Z,17.79
2019-02-07T03:29:48.099Z,17.76
2019-02-07T03:30:48.127Z,17.78
2019-02-07T03:31:48.113Z,17.80
2019-02-07T03:32:48.039Z,17.80
2019-02-07T03:33:48.052Z,17.79
2019-02-07T03:34:47.998Z,17.80
2019-02-07T03:35:47.989Z,17.82
2019-02-07T03:36:47.976Z,17.86
2019-02-07T03:37:47.970Z,17.74
2019-02-07T03:38:47.984Z,17.78
2019-02-07T03:39:47.961Z,17.72
2019-02-07T03:40:47.952Z,17.71
2019-02-07T03:41:47.931Z,17.70
2019-02-07T03:42:47.909Z,17.70
2019-02-07T03:43:47.931Z,17.74
2019-02-07T03:44:47.887Z,17.72
2019-02-07T03:45:47.896Z,17.74
2019-02-07T03:46:47.890Z,17.63
2019-02-07T03:47:47.868Z,17.76
2019-02-07T03:48:47.880Z,17.68
2019-02-07T03:49:47.843Z,17.70
2019-02-07T03:50:47.827Z,17.76
2019-02-07T03:51:47.831Z,17.71
2019-02-07T03:52:47.808Z,17.74
2019-02-07T03:53:47.819Z,17.67
2019-02-07T03:54:47.800Z,17.76
2019-02-07T03:55:47.809Z,17.78
2019-02-07T03:56:47.760Z,17.76
2019-02-07T03:57:47.749Z,17.76
2019-02-07T03:58:47.745Z,17.72
2019-02-07T03:59:47.805Z,17.60
2019-02-07T04:00:47.923Z,17.72
2019-02-07T04:01:47.902Z,17.60
2019-02-07T04:02:47.734Z,17.70
2019-02-07T04:03:47.721Z,17.63
2019-02-07T04:04:47.699Z,17.67
2019-02-07T04:05:47.713Z,17.64
2019-02-07T04:06:47.786Z,17.60
2019-02-07T04:07:47.740Z,17.64
2019-02-07T04:08:47.779Z,17.64
2019-02-07T04:09:47.643Z,17.60
2019-02-07T04:10:47.627Z,17.65
2019-02-07T04:11:47.622Z,17.65
2019-02-07T04:12:47.609Z,17.54
2019-02-07T04:13:47.579Z,17.63
2019-02-07T04:14:47.627Z,17.64
2019-02-07T04:15:47.581Z,17.76
2019-02-07T04:16:47.576Z,17.76
2019-02-07T04:17:47.599Z,17.78
2019-02-07T04:18:47.626Z,17.74
2019-02-07T04:19:47.624Z,17.74
2019-02-07T04:20:47.584Z,17.63
2019-02-07T04:21:47.530Z,17.57
2019-02-07T04:22:47.530Z,17.71
2019-02-07T04:23:47.522Z,17.67
2019-02-07T04:24:47.588Z,17.64
2019-02-07T04:25:47.522Z,17.68
2019-02-07T04:26:47.496Z,17.63
2019-02-07T04:27:47.458Z,17.64
2019-02-07T04:28:47.428Z,17.63
2019-02-07T04:29:47.461Z,17.54
2019-02-07T04:30:47.416Z,17.60
2019-02-07T04:31:47.407Z,17.52
2019-02-07T04:32:47.511Z,17.52
2019-02-07T04:33:47.357Z,17.60
2019-02-07T04:34:47.420Z,17.63
2019-02-07T04:35:47.369Z,17.54
2019-02-07T04:36:47.361Z,17.51
2019-02-07T04:37:47.383Z,17.65
2019-02-07T04:38:47.338Z,17.51
2019-02-07T04:39:47.356Z,17.48
2019-02-07T04:40:47.323Z,17.52
2019-02-07T04:41:47.367Z,17.60
2019-02-07T04:42:47.307Z,17.56
2019-02-07T04:43:47.270Z,17.68
2019-02-07T04:44:47.304Z,17.51
2019-02-07T04:45:47.325Z,17.57
2019-02-07T04:46:52.052Z,17.51
2019-02-07T04:47:47.288Z,17.59
2019-02-07T04:48:47.226Z,17.51
2019-02-07T04:49:47.327Z,17.56
2019-02-07T04:50:47.202Z,17.54
2019-02-07T04:51:47.206Z,17.49
2019-02-07T04:52:47.234Z,17.59
2019-02-07T04:53:47.225Z,17.51
2019-02-07T04:54:47.168Z,17.52
2019-02-07T04:55:47.116Z,17.51
2019-02-07T04:56:47.149Z,17.51
2019-02-07T04:57:47.095Z,17.52
2019-02-07T04:58:47.114Z,17.49
2019-02-07T04:59:47.146Z,17.49
2019-02-07T05:00:47.082Z,17.52
2019-02-07T05:01:47.059Z,17.52
2019-02-07T05:02:47.051Z,17.54
2019-02-07T05:03:47.183Z,17.42
2019-02-07T05:04:47.056Z,17.51
2019-02-07T05:05:47.004Z,17.49
2019-02-07T05:06:46.992Z,17.51
2019-02-07T05:07:47.035Z,17.48
2019-02-07T05:08:47.065Z,17.57
2019-02-07T05:09:46.997Z,17.51
2019-02-07T05:10:46.957Z,17.52
2019-02-07T05:11:46.945Z,17.51
2019-02-07T05:12:46.925Z,17.52
2019-02-07T05:13:46.936Z,17.52
2019-02-07T05:14:46.924Z,17.49
2019-02-07T05:15:46.918Z,17.59
2019-02-07T05:16:46.883Z,17.51
2019-02-07T05:17:46.911Z,17.51
2019-02-07T05:18:46.902Z,17.52
2019-02-07T05:19:46.882Z,17.48
2019-02-07T05:20:46.880Z,17.51
2019-02-07T05:21:46.863Z,17.52
2019-02-07T05:22:47.061Z,17.48
2019-02-07T05:23:46.978Z,17.56
2019-02-07T05:24:46.930Z,17.49
2019-02-07T05:25:46.839Z,17.54
2019-02-07T05:26:46.822Z,17.49
2019-02-07T05:27:46.800Z,17.52
2019-02-07T05:28:46.866Z,17.45
2019-02-07T05:29:46.764Z,17.41
2019-02-07T05:30:46.744Z,17.57
2019-02-07T05:31:46.779Z,17.52
2019-02-07T05:32:46.735Z,17.52
2019-02-07T05:33:46.717Z,17.52
2019-02-07T05:34:46.688Z,17.45
2019-02-07T05:35:46.698Z,17.45
2019-02-07T05:36:46.673Z,17.52
2019-02-07T05:37:49.570Z,17.46
2019-02-07T05:38:46.676Z,17.45
2019-02-07T05:39:46.630Z,17.48
2019-02-07T05:40:46.647Z,17.45
2019-02-07T05:41:46.621Z,17.39
2019-02-07T05:42:46.754Z,17.45
2019-02-07T05:43:48.146Z,17.54
2019-02-07T05:44:46.581Z,17.51
2019-02-07T05:45:46.652Z,17.54
2019-02-07T05:46:51.046Z,17.49
2019-02-07T05:47:46.592Z,17.60
2019-02-07T05:48:46.547Z,17.65
2019-02-07T05:49:46.523Z,17.56
2019-02-07T05:50:46.610Z,17.59
2019-02-07T05:51:46.511Z,17.59
2019-02-07T05:52:46.551Z,17.60
2019-02-07T05:53:46.496Z,17.59
2019-02-07T05:54:46.914Z,17.63
2019-02-07T05:55:46.487Z,17.59
2019-02-07T05:56:46.454Z,17.64
2019-02-07T05:57:46.445Z,17.78
2019-02-07T05:58:46.431Z,17.68
2019-02-07T05:59:46.420Z,17.76
2019-02-07T06:00:46.433Z,17.76
2019-02-07T06:01:46.400Z,17.79
2019-02-07T06:02:46.380Z,17.78
2019-02-07T06:03:46.370Z,17.72
2019-02-07T06:04:46.379Z,17.85
2019-02-07T06:05:46.377Z,17.85
2019-02-07T06:06:46.379Z,17.85
2019-02-07T06:07:46.336Z,17.80
2019-02-07T06:08:46.325Z,17.89
2019-02-07T06:09:48.971Z,17.86
2019-02-07T06:10:46.387Z,17.90
2019-02-07T06:11:46.329Z,17.86
2019-02-07T06:12:46.274Z,17.98
2019-02-07T06:13:46.266Z,17.94
2019-02-07T06:14:46.253Z,17.90
2019-02-07T06:15:46.277Z,17.98
2019-02-07T06:16:46.238Z,17.97
2019-02-07T06:17:46.255Z,18.01
2019-02-07T06:18:46.249Z,18.00
2019-02-07T06:19:46.236Z,18.00
2019-02-07T06:20:46.441Z,18.03
2019-02-07T06:21:48.146Z,18.00
2019-02-07T06:22:46.203Z,18.05
2019-02-07T06:23:46.269Z,18.07
2019-02-07T06:24:46.161Z,18.04
2019-02-07T06:25:46.238Z,18.04
2019-02-07T06:26:46.162Z,18.11
2019-02-07T06:27:46.152Z,18.15
2019-02-07T06:28:46.133Z,18.03
2019-02-07T06:29:46.200Z,18.11
2019-02-07T06:30:46.121Z,18.15
2019-02-07T06:31:46.072Z,18.20
2019-02-07T06:32:46.096Z,18.15
2019-02-07T06:33:46.038Z,18.18
2019-02-07T06:34:46.036Z,18.19
2019-02-07T06:35:46.053Z,18.15
2019-02-07T06:36:46.004Z,18.13
2019-02-07T06:37:45.991Z,18.20
2019-02-07T06:38:45.996Z,18.23
2019-02-07T06:39:45.997Z,18.25
2019-02-07T06:40:46.012Z,18.13
2019-02-07T06:41:45.977Z,18.22
2019-02-07T06:42:45.948Z,18.19
2019-02-07T06:43:45.955Z,18.22
2019-02-07T06:44:45.927Z,18.26
2019-02-07T06:45:45.942Z,18.20
2019-02-07T06:46:46.171Z,18.23
2019-02-07T06:47:45.910Z,18.34
2019-02-07T06:48:45.874Z,18.31
2019-02-07T06:49:45.866Z,18.37
2019-02-07T06:50:45.880Z,18.34
2019-02-07T06:51:45.889Z,18.41
2019-02-07T06:52:45.934Z,18.28
2019-02-07T06:53:45.917Z,18.44
2019-02-07T06:54:45.820Z,18.43
2019-02-07T06:55:45.835Z,18.41
2019-02-07T06:56:45.791Z,18.43
2019-02-07T06:57:45.803Z,18.40
2019-02-07T06:58:45.827Z,18.50
2019-02-07T06:59:45.847Z,18.52
2019-02-07T07:00:45.748Z,18.43
2019-02-07T07:01:45.739Z,18.45
2019-02-07T07:02:45.724Z,18.43
2019-02-07T07:03:45.719Z,18.56
2019-02-07T07:04:45.735Z,18.53
2019-02-07T07:05:45.712Z,18.50
2019-02-07T07:06:45.721Z,18.55
2019-02-07T07:07:45.674Z,18.58
2019-02-07T07:08:45.671Z,18.45
2019-02-07T07:09:45.686Z,18.52
2019-02-07T07:10:45.843Z,18.49
2019-02-07T07:11:45.710Z,18.47
2019-02-07T07:12:45.614Z,18.50
2019-02-07T07:13:45.604Z,18.49
2019-02-07T07:14:45.601Z,18.49
2019-02-07T07:15:45.583Z,18.58
2019-02-07T07:16:45.619Z,18.49
2019-02-07T07:17:45.623Z,18.49
2019-02-07T07:18:45.599Z,18.53
2019-02-07T07:19:45.584Z,18.50
2019-02-07T07:20:45.595Z,18.53
2019-02-07T07:21:45.624Z,18.49
2019-02-07T07:22:45.653Z,18.52
2019-02-07T07:23:45.547Z,18.47
2019-02-07T07:24:45.603Z,18.59
2019-02-07T07:25:45.499Z,18.58
2019-02-07T07:26:45.633Z,18.53
2019-02-07T07:27:45.525Z,18.53
2019-02-07T07:28:45.473Z,18.53
2019-02-07T07:29:45.504Z,18.62
2019-02-07T07:30:45.612Z,18.66
2019-02-07T07:31:45.465Z,18.58
2019-02-07T07:32:45.402Z,18.59
2019-02-07T07:33:45.385Z,18.58
2019-02-07T07:34:45.372Z,18.63
2019-02-07T07:35:45.433Z,18.55
2019-02-07T07:36:45.409Z,18.68
2019-02-07T07:37:45.396Z,18.73
2019-02-07T07:38:45.338Z,18.75
2019-02-07T07:39:45.328Z,18.66
2019-02-07T07:40:45.321Z,18.73
2019-02-07T07:41:45.405Z,18.62
2019-02-07T07:42:45.350Z,18.75
2019-02-07T07:43:45.578Z,18.73
2019-02-07T07:44:45.425Z,18.78
2019-02-07T07:45:45.327Z,18.75
2019-02-07T07:46:45.344Z,18.81
2019-02-07T07:47:45.300Z,18.77
2019-02-07T07:48:45.339Z,18.81
2019-02-07T07:49:45.269Z,18.78
2019-02-07T07:50:45.251Z,18.75
2019-02-07T07:51:45.348Z,18.77
2019-02-07T07:52:45.188Z,18.84
2019-02-07T07:53:45.230Z,18.78
2019-02-07T07:54:45.203Z,18.84
2019-02-07T07:55:45.204Z,18.80
2019-02-07T07:56:45.379Z,18.84
2019-02-07T07:57:45.691Z,18.80
2019-02-07T07:58:45.191Z,18.89
2019-02-07T07:59:45.108Z,18.86
2019-02-07T08:00:45.134Z,18.83
2019-02-07T08:01:45.148Z,18.88
2019-02-07T08:02:45.124Z,18.95
2019-02-07T08:03:45.116Z,18.95
2019-02-07T08:04:45.071Z,18.95
2019-02-07T08:05:45.058Z,18.89
2019-02-07T08:06:45.181Z,18.93
2019-02-07T08:07:44.054Z,18.93
2019-02-07T08:08:45.038Z,19.07
2019-02-07T08:09:45.171Z,18.92
2019-02-07T08:10:45.096Z,19.04
2019-02-07T08:11:44.997Z,19.09
2019-02-07T08:12:44.970Z,19.00
2019-02-07T08:13:44.951Z,19.02
2019-02-07T08:14:44.972Z,19.08
2019-02-07T08:15:44.944Z,19.07
2019-02-07T08:16:44.944Z,19.07
2019-02-07T08:17:47.951Z,19.04
2019-02-07T08:18:44.947Z,19.09
2019-02-07T08:19:44.928Z,19.08
2019-02-07T08:20:44.939Z,19.00
2019-02-07T08:21:44.910Z,19.02
2019-02-07T08:22:44.916Z,19.08
2019-02-07T08:23:44.961Z,19.14
2019-02-07T08:24:45.057Z,19.14
2019-02-07T08:25:44.890Z,19.16
2019-02-07T08:26:45.027Z,19.07
2019-02-07T08:27:44.906Z,19.16
2019-02-07T08:28:44.909Z,19.18
2019-02-07T08:29:44.938Z,19.18
2019-02-07T08:30:44.823Z,19.22
2019-02-07T08:31:44.813Z,19.16
2019-02-07T08:32:44.897Z,19.21
2019-02-07T08:33:44.781Z,19.21
2019-02-07T08:34:44.740Z,19.22
2019-02-07T08:35:44.712Z,19.22
2019-02-07T08:36:44.715Z,19.21
2019-02-07T08:37:44.746Z,19.24
2019-02-07T08:38:44.705Z,19.26
2019-02-07T08:39:44.692Z,19.26
2019-02-07T08:40:44.660Z,19.24
2019-02-07T08:41:44.998Z,19.24
2019-02-07T08:42:44.663Z,19.24
2019-02-07T08:43:44.638Z,19.24
2019-02-07T08:44:44.637Z,19.22
2019-02-07T08:45:44.609Z,19.21
2019-02-07T08:46:44.590Z,19.30
2019-02-07T08:47:45.048Z,19.30
2019-02-07T08:48:44.578Z,19.24
2019-02-07T08:49:44.572Z,19.21
2019-02-07T08:50:44.640Z,19.36
2019-02-07T08:51:44.631Z,19.27
2019-02-07T08:52:44.641Z,19.30
2019-02-07T08:53:44.515Z,19.39
2019-02-07T08:54:44.511Z,19.39
2019-02-07T08:55:45.236Z,19.40
2019-02-07T08:56:44.494Z,19.39
2019-02-07T08:57:44.539Z,19.33
2019-02-07T08:58:44.458Z,19.45
2019-02-07T08:59:44.460Z,19.37
2019-02-07T09:00:44.446Z,19.36
2019-02-07T09:01:44.438Z,19.48
2019-02-07T09:02:51.556Z,19.52
2019-02-07T09:03:44.423Z,19.47
2019-02-07T09:04:44.406Z,19.51
2019-02-07T09:05:44.392Z,19.48
2019-02-07T09:06:44.634Z,19.52
2019-02-07T09:07:44.556Z,19.67
2019-02-07T09:08:44.400Z,19.58
2019-02-07T09:09:44.351Z,19.55
2019-02-07T09:10:44.384Z,19.62
2019-02-07T09:11:44.388Z,19.62
2019-02-07T09:12:44.350Z,19.63
2019-02-07T09:13:44.295Z,19.59
2019-02-07T09:14:44.463Z,19.63
2019-02-07T09:15:44.307Z,19.63
2019-02-07T09:16:44.328Z,19.71
2019-02-07T09:17:44.901Z,19.59
2019-02-07T09:18:44.334Z,19.71
2019-02-07T09:19:44.268Z,19.62
2019-02-07T09:20:44.285Z,19.54
2019-02-07T09:21:44.334Z,19.58
2019-02-07T09:22:44.311Z,19.66
2019-02-07T09:23:44.242Z,19.69
2019-02-07T09:24:44.234Z,19.67
2019-02-07T09:25:44.211Z,19.70
2019-02-07T09:26:44.238Z,19.54
2019-02-07T09:27:44.302Z,19.58
2019-02-07T09:28:44.188Z,19.58
2019-02-07T09:29:44.152Z,19.62
2019-02-07T09:30:44.174Z,19.76
2019-02-07T09:31:44.148Z,19.67
2019-02-07T09:32:44.166Z,19.71
2019-02-07T09:33:44.161Z,19.71
2019-02-07T09:34:45.942Z,19.71
2019-02-07T09:35:44.095Z,19.70
2019-02-07T09:36:44.232Z,19.76
2019-02-07T09:37:44.115Z,19.79
2019-02-07T09:38:44.066Z,19.79
2019-02-07T09:39:44.144Z,19.76
2019-02-07T09:40:44.054Z,19.77
2019-02-07T09:41:43.992Z,19.76
2019-02-07T09:42:44.026Z,19.76
2019-02-07T09:43:43.991Z,19.74
2019-02-07T09:44:43.978Z,19.81
2019-02-07T09:45:43.953Z,19.82
2019-02-07T09:46:43.954Z,19.79
2019-02-07T09:47:43.935Z,19.76
2019-02-07T09:48:43.961Z,19.79
2019-02-07T09:49:43.907Z,19.76
2019-02-07T09:50:43.932Z,19.82
2019-02-07T09:51:44.044Z,19.92
2019-02-07T09:52:43.882Z,19.81
2019-02-07T09:53:43.899Z,19.82
2019-02-07T09:54:43.930Z,19.81
2019-02-07T09:55:43.952Z,19.84
2019-02-07T09:56:43.868Z,19.89
2019-02-07T09:57:43.829Z,19.86
2019-02-07T09:58:44.228Z,19.86
2019-02-07T09:59:43.802Z,19.92
2019-02-07T10:00:43.797Z,19.91
2019-02-07T10:01:43.929Z,19.89
2019-02-07T10:02:43.773Z,20.02
2019-02-07T10:03:43.755Z,20.00
2019-02-07T10:04:43.777Z,20.02
2019-02-07T10:05:43.747Z,19.94
2019-02-07T10:06:45.745Z,19.99
2019-02-07T10:07:43.732Z,19.99
2019-02-07T10:08:43.735Z,20.03
2019-02-07T10:09:43.715Z,20.10
2019-02-07T10:10:43.712Z,20.03
2019-02-07T10:11:43.768Z,20.07
2019-02-07T10:12:43.653Z,20.04
2019-02-07T10:13:43.676Z,20.07
2019-02-07T10:14:43.628Z,20.07
2019-02-07T10:15:43.641Z,20.21
2019-02-07T10:16:43.641Z,20.11
2019-02-07T10:17:43.643Z,20.21
2019-02-07T10:18:43.698Z,20.25
2019-02-07T10:19:43.657Z,20.22
2019-02-07T10:20:43.602Z,20.18
2019-02-07T10:21:43.605Z,20.32
2019-02-07T10:22:43.620Z,20.31
2019-02-07T10:23:43.628Z,20.32
2019-02-07T10:24:44.107Z,20.32
2019-02-07T10:25:43.572Z,20.37
2019-02-07T10:26:43.597Z,20.39
2019-02-07T10:27:43.556Z,20.43
2019-02-07T10:28:43.601Z,20.43
2019-02-07T10:29:43.543Z,20.41
2019-02-07T10:30:43.554Z,20.39
2019-02-07T10:31:43.579Z,20.40
2019-02-07T10:32:43.939Z,20.56
2019-02-07T10:33:43.530Z,20.55
2019-02-07T10:34:43.493Z,20.50
2019-02-07T10:35:43.416Z,20.55
2019-02-07T10:36:43.441Z,20.65
2019-02-07T10:37:43.389Z,20.56
2019-02-07T10:38:43.434Z,20.60
2019-02-07T10:39:43.366Z,20.62
2019-02-07T10:40:43.384Z,20.62
2019-02-07T10:41:43.386Z,20.67
2019-02-07T10:42:43.365Z,20.66
2019-02-07T10:43:43.454Z,20.65
2019-02-07T10:44:43.384Z,20.67
2019-02-07T10:45:43.308Z,20.78
2019-02-07T10:46:43.315Z,20.69
2019-02-07T10:47:43.486Z,20.78
2019-02-07T10:48:44.745Z,20.77
2019-02-07T10:49:43.613Z,20.74
2019-02-07T10:50:43.454Z,20.74
2019-02-07T10:51:43.471Z,20.78
2019-02-07T10:52:43.553Z,20.80
2019-02-07T10:53:43.543Z,20.78
2019-02-07T10:54:43.576Z,20.80
2019-02-07T10:55:43.455Z,20.80
2019-02-07T10:56:43.397Z,20.80
2019-02-07T10:57:43.354Z,20.93
2019-02-07T10:58:42.373Z,20.78
2019-02-07T10:59:43.522Z,20.78
2019-02-07T11:00:43.500Z,20.84
2019-02-07T11:01:43.352Z,20.78
2019-02-07T11:02:43.416Z,20.87
2019-02-07T11:03:43.482Z,20.92
2019-02-07T11:04:43.460Z,20.92
2019-02-07T11:05:43.185Z,20.97
2019-02-07T11:06:43.360Z,21.03
2019-02-07T11:07:43.572Z,20.99
2019-02-07T11:08:43.329Z,21.03
2019-02-07T11:09:43.376Z,21.00
2019-02-07T11:10:43.436Z,21.06
2019-02-07T11:11:43.263Z,21.02
2019-02-07T11:12:43.238Z,21.06
2019-02-07T11:13:43.426Z,21.11
2019-02-07T11:14:43.464Z,21.09
2019-02-07T11:15:43.244Z,21.11
2019-02-07T11:16:43.117Z,21.07
2019-02-07T11:17:43.218Z,21.06
2019-02-07T11:18:43.261Z,21.09
2019-02-07T11:19:43.380Z,21.00
2019-02-07T11:20:43.155Z,21.11
2019-02-07T11:21:43.269Z,21.14
2019-02-07T11:22:43.255Z,21.20
2019-02-07T11:23:43.281Z,21.20
2019-02-07T11:24:43.206Z,21.15
2019-02-07T11:25:43.300Z,21.21
2019-02-07T11:26:43.653Z,21.27
2019-02-07T11:27:43.300Z,21.27
2019-02-07T11:28:43.247Z,21.27
2019-02-07T11:29:43.233Z,21.32
2019-02-07T11:30:43.042Z,21.25
2019-02-07T11:31:43.181Z,21.33
2019-02-07T11:32:43.178Z,21.30
2019-02-07T11:33:43.076Z,21.37
2019-02-07T11:34:45.965Z,21.36
2019-02-07T11:35:43.193Z,21.37
2019-02-07T11:36:53.859Z,21.30
2019-02-07T11:37:43.265Z,21.32
2019-02-07T11:38:43.101Z,21.36
2019-02-07T11:39:42.938Z,21.37
2019-02-07T11:40:43.597Z,21.37
2019-02-07T11:41:43.056Z,21.43
2019-02-07T11:42:43.159Z,21.52
2019-02-07T11:43:43.005Z,21.50
2019-02-07T11:44:42.981Z,21.46
2019-02-07T11:45:42.994Z,21.46
2019-02-07T11:46:43.036Z,21.45
2019-02-07T11:47:42.996Z,21.48
2019-02-07T11:48:42.795Z,21.55
2019-02-07T11:49:42.950Z,21.58
2019-02-07T11:50:42.856Z,21.57
2019-02-07T11:51:43.039Z,21.57
2019-02-07T11:52:42.809Z,21.60
2019-02-07T11:53:43.017Z,21.60
2019-02-07T11:54:43.159Z,21.54
2019-02-07T11:55:42.997Z,21.57
2019-02-07T11:56:42.881Z,21.64
2019-02-07T11:57:42.874Z,21.52
2019-02-07T11:58:43.505Z,21.64
2019-02-07T11:59:42.530Z,21.60
2019-02-07T12:00:42.536Z,21.58
2019-02-07T12:01:42.503Z,21.66
2019-02-07T12:02:42.718Z,21.57
2019-02-07T12:03:42.741Z,21.62
2019-02-07T12:04:42.835Z,21.69
2019-02-07T12:05:42.692Z,21.69
2019-02-07T12:06:42.628Z,21.69
2019-02-07T12:07:44.516Z,21.67
2019-02-07T12:08:42.719Z,21.64
2019-02-07T12:09:42.553Z,21.75
2019-02-07T12:10:42.763Z,21.75
2019-02-07T12:11:42.736Z,21.92
2019-02-07T12:12:43.090Z,21.91
2019-02-07T12:13:42.919Z,22.02
2019-02-07T12:14:42.694Z,21.83
2019-02-07T12:15:42.820Z,21.95
2019-02-07T12:16:42.551Z,22.02
2019-02-07T12:17:42.573Z,22.11
2019-02-07T12:18:42.436Z,22.02
2019-02-07T12:19:42.578Z,22.00
2019-02-07T12:20:42.752Z,22.04
2019-02-07T12:21:42.480Z,22.11
2019-02-07T12:22:42.615Z,22.13
2019-02-07T12:23:42.598Z,22.13
2019-02-07T12:24:42.520Z,22.13
2019-02-07T12:25:42.579Z,22.13
2019-02-07T12:26:42.346Z,22.17
2019-02-07T12:27:42.577Z,22.22
2019-02-07T12:28:42.564Z,22.15
2019-02-07T12:29:42.612Z,22.29
2019-02-07T12:30:42.865Z,22.29
2019-02-07T12:31:42.764Z,22.23
2019-02-07T12:32:42.335Z,22.28
2019-02-07T12:33:42.477Z,22.18
2019-02-07T12:34:42.384Z,22.32
2019-02-07T12:35:42.516Z,22.28
2019-02-07T12:36:42.383Z,22.30
2019-02-07T12:37:42.414Z,22.30
2019-02-07T12:38:42.464Z,22.32
2019-02-07T12:39:42.324Z,22.28
2019-02-07T12:40:42.372Z,22.26
2019-02-07T12:41:42.391Z,22.26
2019-02-07T12:42:42.258Z,22.26
2019-02-07T12:43:42.071Z,22.29
2019-02-07T12:44:42.042Z,22.29
2019-02-07T12:45:42.022Z,22.26
2019-02-07T12:46:42.008Z,22.29
2019-02-07T12:47:41.970Z,22.23
2019-02-07T12:48:41.969Z,22.32
2019-02-07T12:49:41.957Z,22.28
2019-02-07T12:50:42.003Z,22.26
2019-02-07T12:51:41.937Z,22.29
2019-02-07T12:52:41.942Z,22.28